createdAt,value
2022-10-23T00:01:14.084Z,19.00
2022-10-23T00:03:42.022Z,19.00
2022-10-23T00:06:10.434Z,19.00
2022-10-23T00:08:40.224Z,19.00
2022-10-23T00:11:09.289Z,19.00
2022-10-23T00:13:37.441Z,18.90
2022-10-23T00:16:06.185Z,18.90
2022-10-23T00:18:34.311Z,19.00
2022-10-23T00:21:02.551Z,19.00
2022-10-23T00:23:30.620Z,18.90
2022-10-23T00:26:00.260Z,19.00
2022-10-23T00:28:28.294Z,19.00
2022-10-23T00:30:56.220Z,18.90
2022-10-23T00:33:24.092Z,18.90
2022-10-23T00:35:51.987Z,18.90
2022-10-23T00:38:19.850Z,18.90
2022-10-23T00:40:47.767Z,18.90
2022-10-23T00:43:22.733Z,18.90
2022-10-23T00:45:50.566Z,18.90
2022-10-23T00:48:19.612Z,18.90
2022-10-23T00:50:48.666Z,18.90
2022-10-23T00:53:18.142Z,18.90
2022-10-23T00:55:48.345Z,18.90
2022-10-23T00:58:20.116Z,18.90
2022-10-23T01:00:50.739Z,18.90
2022-10-23T01:03:20.968Z,18.90
2022-10-23T01:05:54.880Z,18.90
2022-10-23T01:08:31.016Z,18.90
2022-10-23T01:11:08.514Z,18.90
2022-10-23T01:13:44.995Z,18.90
2022-10-23T01:16:18.173Z,18.90
2022-10-23T01:18:50.806Z,18.90
2022-10-23T01:21:23.245Z,18.90
2022-10-23T01:24:13.181Z,18.90
2022-10-23T01:27:03.330Z,18.90
2022-10-23T01:29:37.771Z,18.80
2022-10-23T01:32:10.673Z,18.80
2022-10-23T01:34:46.496Z,18.80
2022-10-23T01:37:20.554Z,18.80
2022-10-23T01:39:53.310Z,18.80
2022-10-23T01:42:25.201Z,18.80
2022-10-23T01:45:00.430Z,18.80
2022-10-23T01:47:31.142Z,18.80
2022-10-23T01:50:01.084Z,18.80
2022-10-23T01:52:29.281Z,18.80
2022-10-23T01:55:01.245Z,18.80
2022-10-23T01:57:32.220Z,18.80
2022-10-23T02:00:06.837Z,18.80
2022-10-23T02:02:37.155Z,18.80
2022-10-23T02:05:08.562Z,18.80
2022-10-23T02:07:37.417Z,18.80
2022-10-23T02:10:07.410Z,18.80
2022-10-23T02:12:45.308Z,18.80
2022-10-23T02:15:19.085Z,18.80
2022-10-23T02:17:55.451Z,18.80
2022-10-23T02:20:29.421Z,18.80
2022-10-23T02:23:02.967Z,18.80
2022-10-23T02:25:36.188Z,18.80
2022-10-23T02:28:08.916Z,18.80
2022-10-23T02:30:42.498Z,18.80
2022-10-23T02:33:12.565Z,18.80
2022-10-23T02:35:40.494Z,18.80
2022-10-23T02:38:34.070Z,18.80
2022-10-23T02:41:17.046Z,18.80
2022-10-23T02:43:55.250Z,18.80
2022-10-23T02:46:30.550Z,18.70
2022-10-23T02:49:10.640Z,18.80
2022-10-23T02:51:51.534Z,18.70
2022-10-23T02:54:30.248Z,18.70
2022-10-23T02:57:05.946Z,18.70
2022-10-23T02:59:38.438Z,18.70
2022-10-23T03:02:13.129Z,18.70
2022-10-23T03:04:43.798Z,18.70
2022-10-23T03:07:13.962Z,18.80
2022-10-23T03:09:42.155Z,18.70
2022-10-23T03:12:10.056Z,18.70
2022-10-23T03:14:38.168Z,18.70
2022-10-23T03:17:07.480Z,18.70
2022-10-23T03:19:35.394Z,18.70
2022-10-23T03:22:03.299Z,18.80
2022-10-23T03:24:31.189Z,18.70
2022-10-23T03:26:59.035Z,18.70
2022-10-23T03:29:26.998Z,18.70
2022-10-23T03:31:55.541Z,18.70
2022-10-23T03:34:24.785Z,18.70
2022-10-23T03:36:52.674Z,18.70
2022-10-23T03:39:20.600Z,18.70
2022-10-23T03:41:48.517Z,18.60
2022-10-23T03:44:16.433Z,18.70
2022-10-23T03:46:44.350Z,18.70
2022-10-23T03:49:12.292Z,18.70
2022-10-23T03:51:41.965Z,18.70
2022-10-23T03:54:09.959Z,18.70
2022-10-23T03:56:38.020Z,18.70
2022-10-23T03:59:06.181Z,18.70
2022-10-23T04:01:34.164Z,18.70
2022-10-23T04:04:02.324Z,18.60
2022-10-23T04:06:30.217Z,18.70
2022-10-23T04:08:59.650Z,18.70
2022-10-23T04:11:27.580Z,18.70
2022-10-23T04:13:55.468Z,18.60
2022-10-23T04:16:24.053Z,18.70
2022-10-23T04:18:52.078Z,18.60
2022-10-23T04:21:19.989Z,18.60
2022-10-23T04:23:47.861Z,18.70
2022-10-23T04:26:17.114Z,18.60
2022-10-23T04:28:44.997Z,18.60
2022-10-23T04:31:12.867Z,18.60
2022-10-23T04:33:40.747Z,18.60
2022-10-23T04:36:09.681Z,18.60
2022-10-23T04:38:37.622Z,18.60
2022-10-23T04:41:05.573Z,18.60
2022-10-23T04:43:34.873Z,18.60
2022-10-23T04:46:02.809Z,18.60
2022-10-23T04:48:30.736Z,18.60
2022-10-23T04:50:59.721Z,18.60
2022-10-23T04:53:28.836Z,18.60
2022-10-23T04:55:58.388Z,18.60
2022-10-23T04:58:28.225Z,18.60
2022-10-23T05:00:58.194Z,18.60
2022-10-23T05:03:27.021Z,18.60
2022-10-23T05:05:56.186Z,18.60
2022-10-23T05:08:24.740Z,18.60
2022-10-23T05:10:52.807Z,18.60
2022-10-23T05:13:21.589Z,18.60
2022-10-23T05:15:49.688Z,18.60
2022-10-23T05:18:23.840Z,18.60
2022-10-23T05:20:55.345Z,18.60
2022-10-23T05:23:25.897Z,18.60
2022-10-23T05:25:53.790Z,18.70
2022-10-23T05:28:21.698Z,18.60
2022-10-23T05:30:50.213Z,18.60
2022-10-23T05:33:19.574Z,18.60
2022-10-23T05:35:47.518Z,18.60
2022-10-23T05:38:16.625Z,18.60
2022-10-23T05:40:44.634Z,18.60
2022-10-23T05:43:12.508Z,18.60
2022-10-23T05:45:40.413Z,18.60
2022-10-23T05:48:16.742Z,18.60
2022-10-23T05:50:51.611Z,18.60
2022-10-23T05:53:19.503Z,18.60
2022-10-23T05:55:47.394Z,18.60
2022-10-23T05:58:15.279Z,18.60
2022-10-23T06:00:43.137Z,18.60
2022-10-23T06:03:10.971Z,18.60
2022-10-23T06:08:09.115Z,18.60
2022-10-23T06:10:37.047Z,18.60
2022-10-23T06:13:04.915Z,18.60
2022-10-23T06:15:32.790Z,18.60
2022-10-23T06:18:01.935Z,18.60
2022-10-23T06:20:29.906Z,18.60
2022-10-23T06:22:57.819Z,18.60
2022-10-23T06:25:27.130Z,18.60
2022-10-23T06:27:55.012Z,18.60
2022-10-23T06:30:22.913Z,18.60
2022-10-23T06:32:51.660Z,18.60
2022-10-23T06:35:19.570Z,18.50
2022-10-23T06:37:47.480Z,18.60
2022-10-23T06:40:15.441Z,18.50
2022-10-23T06:42:44.940Z,18.50
2022-10-23T06:45:13.011Z,18.50
2022-10-23T06:47:41.080Z,18.50
2022-10-23T06:50:13.040Z,18.50
2022-10-23T06:52:47.113Z,18.50
2022-10-23T06:55:15.880Z,18.50
2022-10-23T06:57:45.843Z,18.50
2022-10-23T07:00:14.721Z,18.60
2022-10-23T07:02:42.882Z,18.50
2022-10-23T07:05:13.549Z,18.50
2022-10-23T07:07:42.021Z,18.60
2022-10-23T07:10:10.433Z,18.60
2022-10-23T07:12:38.412Z,18.60
2022-10-23T07:15:09.419Z,18.60
2022-10-23T07:17:37.307Z,18.60
2022-10-23T07:20:05.742Z,18.70
2022-10-23T07:22:33.733Z,18.70
2022-10-23T07:25:01.588Z,18.70
2022-10-23T07:27:29.548Z,18.60
2022-10-23T07:29:57.536Z,18.70
2022-10-23T07:32:28.501Z,18.70
2022-10-23T07:34:56.355Z,18.70
2022-10-23T07:37:24.274Z,18.70
2022-10-23T07:39:52.211Z,18.70
2022-10-23T07:42:20.091Z,18.70
2022-10-23T07:44:47.954Z,18.70
2022-10-23T07:47:15.853Z,18.70
2022-10-23T07:49:45.097Z,18.70
2022-10-23T07:52:13.006Z,18.70
2022-10-23T07:54:40.926Z,18.70
2022-10-23T07:57:08.812Z,18.70
2022-10-23T07:59:38.090Z,18.70
2022-10-23T08:02:06.186Z,18.70
2022-10-23T08:04:34.071Z,18.70
2022-10-23T08:07:03.470Z,18.70
2022-10-23T08:09:31.370Z,18.70
2022-10-23T08:11:59.257Z,18.70
2022-10-23T08:14:27.247Z,18.70
2022-10-23T08:16:55.180Z,18.70
2022-10-23T08:19:23.162Z,18.80
2022-10-23T08:21:54.587Z,18.80
2022-10-23T08:24:23.966Z,18.80
2022-10-23T08:26:52.021Z,18.80
2022-10-23T08:29:20.045Z,18.80
2022-10-23T08:31:48.112Z,18.80
2022-10-23T08:34:16.305Z,18.80
2022-10-23T08:36:44.234Z,18.80
2022-10-23T08:39:12.090Z,18.80
2022-10-23T08:41:43.681Z,18.80
2022-10-23T08:44:23.268Z,18.80
2022-10-23T08:46:58.749Z,18.80
2022-10-23T08:49:37.021Z,18.80
2022-10-23T08:52:21.395Z,18.80
2022-10-23T08:55:05.287Z,18.80
2022-10-23T08:57:43.735Z,18.80
2022-10-23T09:00:16.053Z,18.80
2022-10-23T09:02:46.592Z,18.80
2022-10-23T09:05:18.867Z,18.80
2022-10-23T09:08:09.503Z,18.80
2022-10-23T09:11:00.383Z,18.80
2022-10-23T09:13:51.153Z,18.80
2022-10-23T09:16:29.326Z,18.80
2022-10-23T09:18:58.296Z,18.80
2022-10-23T09:21:28.096Z,18.80
2022-10-23T09:23:56.103Z,18.80
2022-10-23T09:26:24.388Z,18.80
2022-10-23T09:28:58.121Z,18.80
2022-10-23T09:31:26.029Z,18.80
2022-10-23T09:33:58.393Z,18.80
2022-10-23T09:36:29.124Z,18.90
2022-10-23T09:38:59.796Z,18.90
2022-10-23T09:41:30.748Z,18.90
2022-10-23T09:44:12.382Z,18.90
2022-10-23T09:46:41.356Z,18.90
2022-10-23T09:49:18.056Z,18.90
2022-10-23T09:52:20.968Z,18.90
2022-10-23T09:54:51.431Z,18.90
2022-10-23T09:57:24.912Z,18.90
2022-10-23T09:59:56.689Z,18.90
2022-10-23T10:02:28.851Z,18.90
2022-10-23T10:04:56.876Z,18.90
2022-10-23T10:07:29.357Z,18.90
2022-10-23T10:09:59.574Z,18.90
2022-10-23T10:12:43.348Z,18.90
2022-10-23T10:15:23.622Z,18.90
2022-10-23T10:18:03.761Z,18.90
2022-10-23T10:20:55.918Z,18.90
2022-10-23T10:23:32.142Z,18.90
2022-10-23T10:26:08.897Z,18.90
2022-10-23T10:28:54.696Z,18.90
2022-10-23T10:31:34.622Z,18.90
2022-10-23T10:34:11.469Z,18.90
2022-10-23T10:36:48.050Z,18.80
2022-10-23T10:39:26.736Z,18.90
2022-10-23T10:42:17.885Z,18.90
2022-10-23T10:44:59.269Z,18.90
2022-10-23T10:47:34.314Z,18.90
2022-10-23T10:50:08.505Z,18.90
2022-10-23T10:52:48.280Z,18.90
2022-10-23T10:55:25.276Z,18.90
2022-10-23T10:57:59.934Z,18.90
2022-10-23T11:00:31.075Z,18.90
2022-10-23T11:03:05.651Z,18.90
2022-10-23T11:05:37.202Z,18.80
2022-10-23T11:08:11.561Z,18.90
2022-10-23T11:10:43.202Z,18.90
2022-10-23T11:13:25.922Z,18.90
2022-10-23T11:15:55.964Z,18.90
2022-10-23T11:18:28.352Z,18.90
2022-10-23T11:21:08.259Z,18.90
2022-10-23T11:24:04.609Z,18.90
2022-10-23T11:26:46.721Z,18.90
2022-10-23T11:29:46.033Z,18.90
2022-10-23T11:32:30.564Z,18.80
2022-10-23T11:35:17.135Z,18.90
2022-10-23T11:37:45.393Z,18.90
2022-10-23T11:40:24.045Z,18.90
2022-10-23T11:42:52.578Z,18.90
2022-10-23T11:45:32.931Z,18.90
2022-10-23T11:48:02.743Z,18.90
2022-10-23T11:50:51.255Z,18.90
2022-10-23T11:53:40.612Z,18.90
2022-10-23T11:56:27.683Z,18.90
2022-10-23T11:58:58.649Z,18.90
2022-10-23T12:01:33.115Z,18.90
2022-10-23T12:04:04.943Z,18.90
2022-10-23T12:06:40.472Z,18.90
2022-10-23T12:09:23.040Z,18.90
2022-10-23T12:12:02.541Z,18.90
2022-10-23T12:14:38.224Z,18.90
2022-10-23T12:17:29.173Z,18.90
2022-10-23T12:20:04.677Z,18.90
2022-10-23T12:22:41.742Z,18.90
2022-10-23T12:25:14.629Z,18.80
2022-10-23T12:27:49.140Z,18.90
2022-10-23T12:30:22.728Z,18.90
2022-10-23T12:33:15.230Z,18.90
2022-10-23T12:36:22.509Z,18.90
2022-10-23T12:38:51.966Z,18.90
2022-10-23T12:41:24.120Z,18.90
2022-10-23T12:43:55.509Z,18.90
2022-10-23T12:46:32.563Z,18.90
2022-10-23T12:49:01.457Z,18.90
2022-10-23T12:51:31.391Z,18.90
2022-10-23T12:54:01.559Z,19.00
2022-10-23T12:56:36.340Z,18.90
2022-10-23T12:59:06.242Z,19.00
2022-10-23T13:01:36.982Z,19.00
2022-10-23T13:04:12.360Z,19.00
2022-10-23T13:06:41.104Z,18.90
2022-10-23T13:09:20.950Z,19.00
2022-10-23T13:11:49.337Z,19.00
2022-10-23T13:14:33.343Z,19.00
2022-10-23T13:17:02.909Z,19.00
2022-10-23T13:19:30.863Z,19.00
2022-10-23T13:21:59.599Z,19.00
2022-10-23T13:24:30.483Z,19.00
2022-10-23T13:26:59.142Z,19.00
2022-10-23T13:29:30.292Z,19.00
2022-10-23T13:31:58.260Z,19.00
2022-10-23T13:34:28.709Z,19.00
2022-10-23T13:37:03.273Z,19.00
2022-10-23T13:39:34.734Z,19.00
2022-10-23T13:42:12.977Z,18.90
2022-10-23T13:44:41.683Z,18.90
2022-10-23T13:47:13.325Z,19.00
2022-10-23T13:49:41.225Z,19.00
2022-10-23T13:52:12.163Z,19.00
2022-10-23T13:54:41.466Z,19.00
2022-10-23T13:57:14.736Z,19.00
2022-10-23T13:59:42.785Z,19.00
2022-10-23T14:02:19.013Z,19.00
2022-10-23T14:04:47.348Z,19.00
2022-10-23T14:07:15.389Z,19.00
2022-10-23T14:09:44.685Z,19.00
2022-10-23T14:12:13.525Z,19.00
2022-10-23T14:14:41.529Z,19.00
2022-10-23T14:17:09.437Z,19.00
2022-10-23T14:22:10.260Z,19.00
2022-10-23T14:24:38.270Z,19.10
2022-10-23T14:27:07.625Z,19.00
2022-10-23T14:29:35.594Z,19.10
2022-10-23T14:32:03.491Z,19.10
2022-10-23T14:34:31.408Z,19.00
2022-10-23T14:37:14.647Z,19.00
2022-10-23T14:39:46.235Z,19.00
2022-10-23T14:42:18.476Z,19.00
2022-10-23T14:44:46.386Z,19.00
2022-10-23T14:47:14.269Z,19.00
2022-10-23T14:49:42.869Z,19.00
2022-10-23T14:52:10.792Z,19.00
2022-10-23T14:54:38.690Z,19.00
2022-10-23T14:57:06.624Z,19.00
2022-10-23T14:59:35.898Z,19.00
2022-10-23T15:02:03.864Z,19.00
2022-10-23T15:04:31.778Z,19.00
2022-10-23T15:06:59.664Z,19.00
2022-10-23T15:09:27.569Z,19.00
2022-10-23T15:11:55.433Z,19.00
2022-10-23T15:14:23.356Z,19.00
2022-10-23T15:16:52.627Z,19.00
2022-10-23T15:19:20.532Z,19.00
2022-10-23T15:21:49.286Z,19.00
2022-10-23T15:24:18.254Z,19.00
2022-10-23T15:26:46.377Z,19.00
2022-10-23T15:29:15.383Z,19.00
2022-10-23T15:31:55.978Z,19.00
2022-10-23T15:34:25.864Z,19.00
2022-10-23T15:36:54.951Z,19.00
2022-10-23T15:39:25.874Z,19.00
2022-10-23T15:41:58.840Z,19.00
2022-10-23T15:44:28.365Z,19.00
2022-10-23T15:46:58.376Z,19.00
2022-10-23T15:49:27.373Z,19.00
2022-10-23T15:51:55.421Z,19.00
2022-10-23T15:54:23.866Z,19.00
2022-10-23T15:56:54.857Z,19.00
2022-10-23T15:59:24.848Z,19.00
2022-10-23T16:01:53.260Z,19.00
2022-10-23T16:04:23.060Z,19.00
2022-10-23T16:06:51.116Z,19.00
2022-10-23T16:09:19.060Z,19.00
2022-10-23T16:11:46.997Z,19.00
2022-10-23T16:14:17.391Z,19.00
2022-10-23T16:16:45.855Z,19.00
2022-10-23T16:19:14.672Z,19.00
2022-10-23T16:21:43.928Z,19.00
2022-10-23T16:24:12.313Z,19.00
2022-10-23T16:26:40.675Z,19.00
2022-10-23T16:29:10.007Z,19.00
2022-10-23T16:31:38.164Z,19.00
2022-10-23T16:34:06.688Z,19.00
2022-10-23T16:36:35.480Z,19.00
2022-10-23T16:39:04.965Z,19.00
2022-10-23T16:41:33.091Z,18.90
2022-10-23T16:44:02.148Z,19.00
2022-10-23T16:46:30.202Z,19.00
2022-10-23T16:48:58.390Z,19.00
2022-10-23T16:51:27.876Z,19.00
2022-10-23T16:53:56.411Z,19.00
2022-10-23T16:56:28.659Z,19.00
2022-10-23T17:01:32.219Z,19.00
2022-10-23T17:04:00.575Z,19.00
2022-10-23T17:06:30.611Z,19.00
2022-10-23T17:08:59.666Z,19.00
2022-10-23T17:11:30.485Z,19.00
2022-10-23T17:14:00.712Z,19.00
2022-10-23T17:16:30.706Z,19.00
2022-10-23T17:18:58.991Z,19.00
2022-10-23T17:21:27.278Z,19.00
2022-10-23T17:23:55.238Z,19.00
2022-10-23T17:26:23.652Z,19.00
2022-10-23T17:28:53.118Z,19.00
2022-10-23T17:31:23.514Z,19.00
2022-10-23T17:33:54.661Z,19.00
2022-10-23T17:36:23.569Z,19.00
2022-10-23T17:38:51.551Z,19.00
2022-10-23T17:41:21.786Z,19.00
2022-10-23T17:43:50.220Z,19.00
2022-10-23T17:46:20.073Z,19.00
2022-10-23T17:48:48.105Z,19.00
2022-10-23T17:51:18.197Z,19.00
2022-10-23T17:53:48.628Z,19.00
2022-10-23T17:56:19.968Z,19.00
2022-10-23T17:58:48.361Z,19.00
2022-10-23T18:01:20.346Z,19.00
2022-10-23T18:03:48.938Z,19.00
2022-10-23T18:06:20.643Z,19.00
2022-10-23T18:08:49.942Z,19.00
2022-10-23T18:11:19.665Z,19.00
2022-10-23T18:13:48.009Z,19.00
2022-10-23T18:16:16.679Z,19.00
2022-10-23T18:18:48.097Z,19.00
2022-10-23T18:21:17.581Z,19.00
2022-10-23T18:23:45.665Z,19.00
2022-10-23T18:26:17.651Z,19.00
2022-10-23T18:28:46.238Z,19.00
2022-10-23T18:31:15.509Z,19.00
2022-10-23T18:33:44.999Z,19.00
2022-10-23T18:36:17.847Z,19.00
2022-10-23T18:38:45.826Z,19.00
2022-10-23T18:41:13.936Z,19.00
2022-10-23T18:43:44.209Z,19.00
2022-10-23T18:46:12.836Z,19.00
2022-10-23T18:48:41.232Z,19.00
2022-10-23T18:51:16.211Z,19.00
2022-10-23T18:53:46.592Z,19.00
2022-10-23T18:56:15.363Z,19.00
2022-10-23T18:58:43.389Z,19.00
2022-10-23T19:01:11.727Z,19.00
2022-10-23T19:03:39.753Z,19.00
2022-10-23T19:06:08.317Z,19.00
2022-10-23T19:08:39.025Z,19.00
2022-10-23T19:11:07.892Z,19.00
2022-10-23T19:13:39.050Z,19.00
2022-10-23T19:16:11.319Z,19.00
2022-10-23T19:18:41.529Z,19.00
2022-10-23T19:21:09.947Z,19.00
2022-10-23T19:23:41.543Z,19.00
2022-10-23T19:26:13.003Z,19.00
2022-10-23T19:28:43.917Z,19.00
2022-10-23T19:31:12.580Z,19.00
2022-10-23T19:33:41.089Z,19.00
2022-10-23T19:36:13.926Z,19.00
2022-10-23T19:38:43.558Z,19.00
2022-10-23T19:41:11.985Z,19.00
2022-10-23T19:43:39.961Z,19.00
2022-10-23T19:46:11.192Z,19.00
2022-10-23T19:48:42.398Z,19.00
2022-10-23T19:51:10.417Z,19.00
2022-10-23T19:53:38.406Z,19.00
2022-10-23T19:56:09.250Z,19.00
2022-10-23T19:58:37.251Z,19.00
2022-10-23T20:01:09.947Z,19.00
2022-10-23T20:03:38.653Z,19.00
2022-10-23T20:06:10.068Z,19.00
2022-10-23T20:08:38.055Z,19.00
2022-10-23T20:11:07.929Z,19.00
2022-10-23T20:13:36.044Z,19.00
2022-10-23T20:16:04.048Z,19.00
2022-10-23T20:18:31.991Z,19.00
2022-10-23T20:21:02.611Z,19.00
2022-10-23T20:23:30.685Z,19.00
2022-10-23T20:26:05.643Z,19.00
2022-10-23T20:28:35.180Z,19.10
2022-10-23T20:31:08.290Z,19.10
2022-10-23T20:33:36.509Z,19.10
2022-10-23T20:36:05.244Z,19.20
2022-10-23T20:38:33.161Z,19.20
2022-10-23T20:41:05.600Z,19.30
2022-10-23T20:43:35.880Z,19.30
2022-10-23T20:46:07.759Z,19.30
2022-10-23T20:48:36.703Z,19.40
2022-10-23T20:51:05.510Z,19.40
2022-10-23T20:53:33.548Z,19.40
2022-10-23T20:56:01.485Z,19.40
2022-10-23T20:58:29.386Z,19.50
2022-10-23T21:01:03.539Z,19.50
2022-10-23T21:03:31.553Z,19.50
2022-10-23T21:06:04.711Z,19.50
2022-10-23T21:08:32.976Z,19.50
2022-10-23T21:11:01.280Z,19.50
2022-10-23T21:13:29.841Z,19.50
2022-10-23T21:15:59.585Z,19.50
2022-10-23T21:18:44.829Z,19.50
2022-10-23T21:21:14.257Z,19.50
2022-10-23T21:23:42.165Z,19.50
2022-10-23T21:26:10.296Z,19.60
2022-10-23T21:28:38.491Z,19.60
2022-10-23T21:31:09.577Z,19.60
2022-10-23T21:33:38.315Z,19.60
2022-10-23T21:36:14.234Z,19.60
2022-10-23T21:38:42.249Z,19.50
2022-10-23T21:41:12.483Z,19.50
2022-10-23T21:43:40.410Z,19.50
2022-10-23T21:46:13.921Z,19.50
2022-10-23T21:48:42.245Z,19.40
2022-10-23T21:51:15.866Z,19.40
2022-10-23T21:53:43.896Z,19.30
2022-10-23T21:56:19.144Z,19.40
2022-10-23T21:58:47.102Z,19.40
2022-10-23T22:01:17.042Z,19.40
2022-10-23T22:03:45.070Z,19.40
2022-10-23T22:06:16.998Z,19.40
2022-10-23T22:08:45.003Z,19.30
2022-10-23T22:11:14.001Z,19.40
2022-10-23T22:13:42.296Z,19.30
2022-10-23T22:16:11.330Z,19.30
2022-10-23T22:18:41.147Z,19.30
2022-10-23T22:21:11.145Z,19.40
2022-10-23T22:23:39.731Z,19.30
2022-10-23T22:26:08.572Z,19.30
2022-10-23T22:28:36.556Z,19.30
2022-10-23T22:31:04.438Z,19.30
2022-10-23T22:33:32.396Z,19.30
2022-10-23T22:36:05.261Z,19.30
2022-10-23T22:38:33.167Z,19.30
2022-10-23T22:41:02.348Z,19.30
2022-10-23T22:43:30.900Z,19.30
2022-10-23T22:46:04.365Z,19.30
2022-10-23T22:48:32.289Z,19.30
2022-10-23T22:51:00.241Z,19.30
2022-10-23T22:53:29.654Z,19.20
2022-10-23T22:55:57.987Z,19.30
2022-10-23T22:58:26.797Z,19.30
2022-10-23T23:01:03.687Z,19.30
2022-10-23T23:03:31.606Z,19.30
2022-10-23T23:05:59.535Z,19.20
2022-10-23T23:08:29.065Z,19.30
2022-10-23T23:10:58.282Z,19.30
2022-10-23T23:13:27.310Z,19.20
2022-10-23T23:15:56.052Z,19.30
2022-10-23T23:18:24.264Z,19.20
2022-10-23T23:20:52.233Z,19.30
2022-10-23T23:23:20.705Z,19.20
2022-10-23T23:25:51.167Z,19.30
2022-10-23T23:28:21.509Z,19.30
2022-10-23T23:30:49.770Z,19.30
2022-10-23T23:33:19.938Z,19.30
2022-10-23T23:35:48.974Z,19.30
2022-10-23T23:38:16.826Z,19.30
2022-10-23T23:40:52.005Z,19.30
2022-10-23T23:43:20.599Z,19.30
2022-10-23T23:45:48.513Z,19.30
2022-10-23T23:48:16.421Z,19.30
2022-10-23T23:50:44.418Z,19.30
2022-10-23T23:53:12.321Z,19.30
2022-10-23T23:55:40.275Z,19.30
2022-10-23T23:58:10.764Z,19.30
